»·PEaware :: COLT1 KINS-KLSV

COLT1 :: KINS-KLSV

FLIGHT INFORMATION

Flight Status: Arrived
Operator: Unknown
More flights by this operator :: More flights under this callsign
Pilot: Max D. (7509)
Aircraft: FAIRCHILD A-10 THUNDERBOLT 2
(A10)
More flights by this aircraft type
Origin: KINS Indian Springs AF Aux
United States
Destination: KLSV Nellis AFB
United States
More flights between these airports :: More routes between these airports
Route: +MMM DCT
File this flight plan on PilotEdge
Remarks: first time IFR in A10C, let's see how this goes
Altitude:
(Current/Filed)
8,000ft
Speed:
(Current/Filed)
280kts
Departed: 11-Nov-16 06:11 PM
Arrived: 11-Nov-16 06:49 PM
Distance/Time
Traveled:
38nm/0:38
Distance/Time
To Go:
Arrived

Flight Plot

Page will automatically refresh every two minutes.

Flight plan parsing failed; only flown route is shown


Map Options




Map Legend


Flown Route
Filed Route
Departure Airport
Arrival Airport
Navaid (VOR, NDB)
Fix

Horizontal Profiles

Position Reports

Time Latitude Longitude Heading Altitude Ground
Speed
11-Nov-16 17:51 36.581785 -115.672543 1 3133ft 0kts
11-Nov-16 17:52 36.581785 -115.672543 1 3133ft 0kts
11-Nov-16 17:53 36.581785 -115.672543 1 3133ft 0kts
11-Nov-16 17:54 36.581785 -115.672543 1 3133ft 0kts
11-Nov-16 17:55 36.581785 -115.672543 1 3133ft 0kts
11-Nov-16 17:56 36.581799 -115.672542 2 3133ft 0kts
11-Nov-16 17:57 36.581800 -115.672541 1 3133ft 0kts
11-Nov-16 17:58 36.581800 -115.672541 1 3133ft 0kts
11-Nov-16 17:59 36.581800 -115.672541 1 3133ft 0kts
11-Nov-16 18:00 36.582156 -115.672093 294 3134ft 19kts
11-Nov-16 18:01 36.581304 -115.671631 91 3134ft 28kts
11-Nov-16 18:02 36.581686 -115.664705 338 3133ft 6kts
11-Nov-16 18:03 36.582806 -115.665007 352 3133ft 0kts
11-Nov-16 18:04 36.582806 -115.665007 352 3133ft 0kts
11-Nov-16 18:05 36.584690 -115.690956 279 3473ft 166kts
11-Nov-16 18:06 36.594313 -115.761284 285 6302ft 199kts
11-Nov-16 18:07 36.610851 -115.834327 285 8391ft 260kts
11-Nov-16 18:08 36.633150 -115.929719 285 8382ft 295kts
11-Nov-16 18:09 36.656496 -116.028954 285 8382ft 298kts
11-Nov-16 18:10 36.678248 -116.128280 281 8685ft 291kts
11-Nov-16 18:11 36.690409 -116.210918 280 12907ft 201kts
11-Nov-16 18:12 36.663951 -116.277319 192 12602ft 309kts
11-Nov-16 18:13 36.579248 -116.284918 182 13899ft 281kts
11-Nov-16 18:14 36.495856 -116.290815 182 13974ft 320kts
11-Nov-16 18:15 36.406826 -116.296134 182 14228ft 312kts
11-Nov-16 18:16 36.319402 -116.298699 180 14384ft 319kts
11-Nov-16 18:17 36.229751 -116.299228 164 14434ft 315kts
11-Nov-16 18:18 36.176855 -116.218097 93 14394ft 320kts
11-Nov-16 18:19 36.178474 -116.108510 88 14671ft 315kts
11-Nov-16 18:20 36.181254 -116.000166 97 15211ft 310kts
11-Nov-16 18:21 36.148789 -115.899763 136 14381ft 334kts
11-Nov-16 18:22 36.079034 -115.826029 114 14354ft 319kts
11-Nov-16 18:23 36.070646 -115.716812 89 14314ft 322kts
11-Nov-16 18:24 36.116251 -115.618632 51 12457ft 353kts
11-Nov-16 18:25 36.173598 -115.525322 50 12178ft 327kts
11-Nov-16 18:26 36.228645 -115.437811 50 11338ft 302kts
11-Nov-16 18:27 36.273649 -115.366611 51 9078ft 211kts
11-Nov-16 18:28 36.314523 -115.299579 51 9085ft 290kts
11-Nov-16 18:29 36.366599 -115.215474 51 9085ft 314kts
11-Nov-16 18:30 36.426318 -115.134531 42 8101ft 306kts
11-Nov-16 18:31 36.486208 -115.063918 42 8104ft 291kts
11-Nov-16 18:32 36.544891 -114.994449 42 8104ft 290kts
11-Nov-16 18:33 36.575134 -114.914056 125 7978ft 290kts
11-Nov-16 18:34 36.530365 -114.826102 121 6028ft 270kts
11-Nov-16 18:35 36.474938 -114.792381 188 6090ft 266kts
11-Nov-16 18:36 36.413978 -114.839655 219 5375ft 222kts
11-Nov-16 18:37 36.370834 -114.885546 218 4490ft 184kts
11-Nov-16 18:38 36.330957 -114.928581 219 3899ft 196kts
11-Nov-16 18:39 36.290343 -114.972541 220 3887ft 220kts
11-Nov-16 18:40 36.235162 -115.019286 140 4038ft 211kts
11-Nov-16 18:41 36.257087 -114.991920 293 3054ft 159kts
11-Nov-16 18:42 36.238012 -115.029932 219 1852ft 103kts
11-Nov-16 18:43 36.231340 -115.034187 129 1850ft 8kts
11-Nov-16 18:44 36.230351 -115.032157 53 1850ft 8kts
11-Nov-16 18:45 36.230667 -115.027837 90 1850ft 20kts
11-Nov-16 18:46 36.230109 -115.025105 265 1850ft 0kts
11-Nov-16 18:47 36.230109 -115.025105 265 1850ft 0kts
11-Nov-16 18:48 36.230109 -115.025105 265 1850ft 0kts
11-Nov-16 18:49 36.230109 -115.025105 265 1850ft 0kts
11-Nov-16 18:50 36.230109 -115.025105 265 1850ft 0kts
11-Nov-16 18:51 36.230109 -115.025105 265 1850ft 0kts
11-Nov-16 18:52 36.230109 -115.025105 265 1850ft 0kts
11-Nov-16 18:53 36.230109 -115.025105 265 1850ft 0kts
11-Nov-16 18:54 36.230109 -115.025105 265 1850ft 0kts
11-Nov-16 18:55 36.230109 -115.025105 265 1850ft 0kts
11-Nov-16 18:56 36.230109 -115.025105 265 1850ft 0kts
11-Nov-16 18:57 36.230109 -115.025105 265 1850ft 0kts
11-Nov-16 18:58 36.230109 -115.025105 265 1850ft 0kts

Navigation Log

Ident Type
Flight plan parsing failed, navigation log unavailable